Time;durP1;ratioP1;P1;durP2;ratioP2;P2;SDS_P1;SDS_P2;PMS_P1;PMS_P2;Temp;Humidity;BMP_temperature;BMP_pressure;BME280_temperature;BME280_humidity;BME280_pressure;Samples;Min_cycle;Max_cycle;Signal;HPM_P1;HPM_P2
2022/01/04 00:01:38;;;;;;;0.70;0.70;;;6.30;99.90;;;;;;7346263;19;20393;-85
2022/01/04 00:07:22;;;;;;;0.80;0.80;;;6.20;99.90;;;;;;7312383;19;20352;-85
2022/01/04 00:10:19;;;;;;;0.80;0.80;;;6.20;99.90;;;;;;7367358;19;20293;-83
2022/01/04 02:54:26;;;;;;;0.70;0.70;;;6.80;99.90;;;;;;7310019;19;20352;-88
2022/01/04 04:07:16;;;;;;;0.52;0.52;;;7.30;99.90;;;;;;7281724;19;20364;-91
2022/01/04 04:09:42;;;;;;;0.70;0.70;;;7.30;99.90;;;;;;7391840;19;20365;-90
2022/01/04 04:21:24;;;;;;;0.60;0.60;;;7.30;99.90;;;;;;7324018;19;20381;-90
2022/01/04 04:23:50;;;;;;;0.73;0.73;;;7.30;99.90;;;;;;7333298;19;20381;-89
2022/01/04 04:26:16;;;;;;;0.50;0.50;;;7.30;99.90;;;;;;7416095;19;20328;-91
2022/01/04 05:50:49;;;;;;;0.60;0.60;;;7.10;99.90;;;;;;7346407;19;20309;-83
2022/01/04 11:02:05;;;;;;;1.17;0.80;;;8.20;99.90;;;;;;7338281;19;20349;-89
2022/01/04 11:38:10;;;;;;;0.95;0.95;;;8.30;99.90;;;;;;7422713;19;20336;-90
2022/01/04 11:40:41;;;;;;;1.00;1.00;;;8.10;99.90;;;;;;7397145;19;20304;-92
2022/01/04 11:43:25;;;;;;;0.80;0.80;;;8.40;99.90;;;;;;7398019;19;20269;-92
2022/01/04 12:01:31;;;;;;;1.90;1.80;;;8.40;99.90;;;;;;7314687;19;20345;-90
2022/01/04 12:21:35;;;;;;;2.63;2.43;;;8.50;99.90;;;;;;7324217;19;20309;-90
2022/01/04 12:24:02;;;;;;;6.45;5.65;;;8.50;99.90;;;;;;7401408;19;20424;-92
2022/01/04 12:29:24;;;;;;;3.80;3.35;;;8.50;99.90;;;;;;7369233;19;20368;-92
2022/01/04 12:31:52;;;;;;;2.60;2.40;;;8.50;99.90;;;;;;7424143;19;20327;-91
2022/01/04 12:34:51;;;;;;;2.03;1.83;;;8.60;99.90;;;;;;7402160;19;20273;-92
2022/01/04 12:37:19;;;;;;;2.30;1.80;;;8.60;99.90;;;;;;7317304;19;2004198;-92
2022/01/04 12:39:45;;;;;;;1.80;1.70;;;8.70;99.90;;;;;;7418606;19;20329;-93
2022/01/04 12:42:12;;;;;;;1.50;1.40;;;8.60;99.90;;;;;;7421639;19;20337;-88
2022/01/04 12:44:38;;;;;;;1.80;1.70;;;8.70;99.90;;;;;;7420287;19;20332;-91
2022/01/04 12:47:04;;;;;;;1.88;1.77;;;8.80;99.90;;;;;;7418924;19;20328;-90
2022/01/04 12:49:32;;;;;;;1.60;1.50;;;8.80;99.90;;;;;;7418857;19;20289;-92
2022/01/04 12:52:03;;;;;;;1.70;1.60;;;8.70;99.90;;;;;;7421162;19;20324;-91
2022/01/04 12:54:31;;;;;;;1.60;1.50;;;8.80;99.90;;;;;;7420280;19;20329;-91
2022/01/04 12:57:02;;;;;;;1.60;1.50;;;8.80;99.90;;;;;;7418446;19;20304;-91
2022/01/04 12:59:44;;;;;;;1.80;1.70;;;8.80;99.90;;;;;;7424039;19;20366;-92
2022/01/04 13:02:15;;;;;;;1.70;1.60;;;8.80;99.90;;;;;;7318533;19;2004442;-91
2022/01/04 13:04:45;;;;;;;1.20;1.20;;;8.80;99.90;;;;;;7418645;19;20336;-90
2022/01/04 13:07:14;;;;;;;1.48;1.38;;;8.90;99.90;;;;;;7421138;19;20327;-89
2022/01/04 13:09:40;;;;;;;1.40;1.40;;;8.90;99.90;;;;;;7424867;19;20384;-88
2022/01/04 13:12:06;;;;;;;1.50;1.40;;;8.90;99.90;;;;;;7421230;19;20377;-88
2022/01/04 13:14:33;;;;;;;1.70;1.60;;;8.90;99.90;;;;;;7421954;19;20320;-91
2022/01/04 13:17:07;;;;;;;1.65;1.55;;;9.00;99.90;;;;;;7428630;19;20348;-90
2022/01/04 13:19:34;;;;;;;2.70;2.50;;;9.00;99.90;;;;;;7327564;19;2006180;-86
2022/01/04 13:22:04;;;;;;;2.33;2.13;;;8.80;99.90;;;;;;7421752;19;20353;-89
2022/01/04 13:27:39;;;;;;;1.90;1.80;;;8.50;99.90;;;;;;7409593;19;20360;-86
2022/01/04 13:30:17;;;;;;;2.00;1.80;;;8.40;99.90;;;;;;7426225;19;20300;-89
2022/01/04 13:32:58;;;;;;;2.95;2.20;;;8.30;99.90;;;;;;7321777;19;2004341;-89
2022/01/04 13:35:48;;;;;;;2.00;1.90;;;8.30;99.90;;;;;;7319770;19;2005991;-88
2022/01/04 13:38:20;;;;;;;2.40;2.22;;;8.30;99.90;;;;;;7424693;19;20356;-86
2022/01/04 13:40:47;;;;;;;2.33;2.00;;;8.30;99.90;;;;;;7424156;19;20955;-90
2022/01/04 13:43:14;;;;;;;2.20;2.10;;;8.30;99.90;;;;;;7421893;19;20361;-86
2022/01/04 13:45:54;;;;;;;1.98;1.88;;;8.30;99.90;;;;;;7425245;19;20456;-86
2022/01/04 13:48:25;;;;;;;1.80;1.40;;;8.20;99.90;;;;;;7420716;19;20375;-90
2022/01/04 13:50:51;;;;;;;1.70;1.60;;;8.30;99.90;;;;;;7410624;19;20325;-89
2022/01/04 13:53:23;;;;;;;1.77;1.67;;;8.30;99.90;;;;;;7424385;19;20374;-90
2022/01/04 13:56:06;;;;;;;1.90;1.80;;;8.30;99.90;;;;;;7425017;19;20305;-87
2022/01/04 13:58:52;;;;;;;2.47;2.22;;;8.10;99.90;;;;;;7315866;19;2004262;-91
2022/01/04 14:01:32;;;;;;;6.38;5.10;;;8.00;99.90;;;;;;7373705;19;21392;-87
2022/01/04 14:04:15;;;;;;;5.88;4.95;;;7.90;99.90;;;;;;7399008;19;20331;-85
2022/01/04 14:06:46;;;;;;;5.38;4.07;;;7.80;99.90;;;;;;7417562;19;20308;-89
2022/01/04 14:09:30;;;;;;;3.83;3.00;;;7.80;99.90;;;;;;7388355;19;20337;-85
2022/01/04 14:15:05;;;;;;;2.22;2.03;;;7.70;99.90;;;;;;7422961;19;20308;-85
2022/01/04 14:17:35;;;;;;;2.20;2.00;;;7.60;99.90;;;;;;7361374;19;20329;-79
2022/01/04 14:20:12;;;;;;;3.40;1.90;;;7.60;99.90;;;;;;7395277;19;20359;-80
2022/01/04 14:22:53;;;;;;;2.20;2.00;;;7.70;99.90;;;;;;7381909;19;20398;-80
2022/01/04 14:25:27;;;;;;;2.65;2.25;;;7.70;99.90;;;;;;7402415;19;20377;-80
2022/01/04 14:27:56;;;;;;;2.97;2.40;;;7.70;99.90;;;;;;7390706;19;20347;-82
2022/01/04 14:30:28;;;;;;;2.40;2.20;;;7.70;99.90;;;;;;7422181;19;20315;-79
2022/01/04 14:33:03;;;;;;;2.00;1.90;;;7.60;99.90;;;;;;7422386;19;20313;-79
2022/01/04 14:35:39;;;;;;;2.45;2.25;;;7.50;99.90;;;;;;7275976;19;2004276;-80
2022/01/04 14:38:06;;;;;;;2.40;2.20;;;7.60;99.90;;;;;;7400770;19;20335;-78
2022/01/04 14:40:34;;;;;;;2.30;2.10;;;7.50;99.90;;;;;;7416252;19;20352;-80
2022/01/04 14:43:04;;;;;;;2.60;2.20;;;7.50;99.90;;;;;;7400423;19;20364;-79
2022/01/04 14:45:35;;;;;;;2.65;2.30;;;7.50;99.90;;;;;;7379060;19;20529;-83
2022/01/04 14:48:17;;;;;;;1.92;1.83;;;7.40;99.90;;;;;;7391795;19;20358;-81
2022/01/04 14:50:55;;;;;;;2.72;2.40;;;7.50;99.90;;;;;;7319672;19;2004467;-81
2022/01/04 14:53:25;;;;;;;2.80;2.30;;;7.40;99.90;;;;;;7361389;19;20295;-81
2022/01/04 14:56:24;;;;;;;2.15;1.80;;;7.40;99.90;;;;;;7317470;19;2004392;-82
2022/01/04 14:59:15;;;;;;;2.85;2.03;;;7.30;99.90;;;;;;7396421;19;20368;-82
2022/01/04 15:05:09;;;;;;;1.30;1.30;;;7.20;99.90;;;;;;7345579;19;20308;-81
2022/01/04 15:07:39;;;;;;;2.38;2.10;;;7.10;99.90;;;;;;7400567;19;20443;-80
2022/01/04 15:18:52;;;;;;;1.20;1.20;;;7.10;99.90;;;;;;7392770;19;20773;-81
2022/01/04 15:30:22;;;;;;;3.00;2.72;;;7.10;99.90;;;;;;7379002;19;22924;-83
2022/01/04 15:32:51;;;;;;;3.73;3.27;;;6.90;99.90;;;;;;7321388;19;2004509;-82
2022/01/04 15:35:17;;;;;;;3.45;2.97;;;7.10;99.90;;;;;;7420018;19;20612;-82
2022/01/04 15:37:49;;;;;;;1.67;1.58;;;7.00;99.90;;;;;;7399494;19;20380;-81
2022/01/04 15:40:19;;;;;;;0.95;0.93;;;6.80;99.90;;;;;;7377699;19;20308;-82
2022/01/04 15:42:46;;;;;;;0.90;0.90;;;6.90;99.90;;;;;;7401575;19;20324;-82
2022/01/04 15:45:20;;;;;;;1.02;1.00;;;6.90;99.90;;;;;;7400649;19;20340;-81
2022/01/04 15:47:47;;;;;;;0.73;0.73;;;6.80;99.90;;;;;;7419817;19;20345;-82
2022/01/04 15:50:16;;;;;;;1.05;1.05;;;6.90;99.90;;;;;;7400277;19;20344;-83
2022/01/04 15:52:51;;;;;;;0.85;0.85;;;6.90;99.90;;;;;;7397841;19;20320;-82
2022/01/04 15:55:57;;;;;;;0.98;0.98;;;6.80;99.90;;;;;;7322950;19;2004678;-82
2022/01/04 15:58:35;;;;;;;1.17;1.10;;;6.60;99.90;;;;;;7383011;19;20365;-82
2022/01/04 16:16:07;;;;;;;2.78;2.47;;;6.80;99.90;;;;;;7400914;19;20353;-81
2022/01/04 16:21:36;;;;;;;1.15;1.13;;;6.80;99.90;;;;;;7402835;19;20336;-82
2022/01/04 16:24:10;;;;;;;1.92;1.20;;;6.80;99.90;;;;;;7421843;19;20396;-82
2022/01/04 16:26:42;;;;;;;2.30;2.10;;;6.80;99.90;;;;;;7411118;19;21269;-82
2022/01/04 16:29:13;;;;;;;1.87;1.77;;;6.70;99.90;;;;;;7329507;19;20352;-81
2022/01/04 16:46:20;;;;;;;1.25;1.20;;;6.60;99.90;;;;;;7426512;19;20308;-81
2022/01/04 16:48:54;;;;;;;1.85;1.65;;;6.60;99.90;;;;;;7394520;19;20772;-83
2022/01/04 16:51:50;;;;;;;3.47;2.33;;;6.60;99.90;;;;;;7420547;19;20404;-80
2022/01/04 16:54:21;;;;;;;3.05;1.92;;;6.50;99.90;;;;;;7308215;19;2004434;-82
2022/01/04 16:59:49;;;;;;;3.25;2.88;;;6.50;99.90;;;;;;7349469;19;20347;-81
2022/01/04 17:02:31;;;;;;;5.50;3.60;;;6.40;99.90;;;;;;7410107;19;20325;-80
2022/01/04 17:11:03;;;;;;;4.43;3.58;;;6.40;99.90;;;;;;7376751;19;20344;-80
2022/01/04 17:20:29;;;;;;;2.70;2.38;;;6.40;99.90;;;;;;7394389;19;20339;-81
2022/01/04 17:23:03;;;;;;;1.90;1.80;;;6.30;99.90;;;;;;7388006;19;20333;-81
2022/01/04 17:28:51;;;;;;;1.15;1.15;;;6.30;99.90;;;;;;7333908;19;20365;31
2022/01/04 17:31:38;;;;;;;1.70;1.50;;;6.30;99.90;;;;;;7408582;19;20347;-82
2022/01/04 17:34:05;;;;;;;1.10;1.10;;;6.20;99.90;;;;;;7401405;19;20713;-80
2022/01/04 17:36:33;;;;;;;1.27;1.20;;;6.30;99.90;;;;;;7393965;19;20371;-80
2022/01/04 17:39:01;;;;;;;1.65;1.33;;;6.20;99.90;;;;;;7411964;19;20327;-82
2022/01/04 17:41:31;;;;;;;1.17;1.17;;;6.20;99.90;;;;;;7410546;19;20312;-81
2022/01/04 17:43:59;;;;;;;0.98;0.98;;;6.20;99.90;;;;;;7369797;19;20322;-78
2022/01/04 17:46:34;;;;;;;1.02;1.02;;;6.20;99.90;;;;;;7418685;19;20447;-81
2022/01/04 17:49:02;;;;;;;1.10;1.10;;;6.20;99.90;;;;;;7415489;19;20333;-79
2022/01/04 17:51:31;;;;;;;1.00;1.00;;;6.10;99.90;;;;;;7417001;19;20327;-82
2022/01/04 17:54:02;;;;;;;1.48;1.38;;;6.00;99.90;;;;;;7418490;19;20368;-79
2022/01/04 17:56:29;;;;;;;2.90;1.55;;;6.10;99.90;;;;;;7412470;19;20368;-82
2022/01/04 17:58:56;;;;;;;1.60;1.50;;;6.20;99.90;;;;;;7416481;19;20313;-81
2022/01/04 18:01:24;;;;;;;1.50;1.40;;;6.10;99.90;;;;;;7417538;19;20321;-81
2022/01/04 18:03:50;;;;;;;1.50;1.40;;;6.20;99.90;;;;;;7372316;19;20341;-82
2022/01/04 18:06:20;;;;;;;1.50;1.40;;;6.10;99.90;;;;;;7401652;19;20403;-81
2022/01/04 18:08:50;;;;;;;1.40;1.30;;;6.10;99.90;;;;;;7420300;19;21431;-81
2022/01/04 18:11:20;;;;;;;1.70;1.60;;;6.10;99.90;;;;;;7404470;19;20368;-80
2022/01/04 18:13:51;;;;;;;1.50;1.40;;;6.00;99.90;;;;;;7400077;19;20342;-81
2022/01/04 18:16:17;;;;;;;1.60;1.50;;;6.10;99.90;;;;;;7401059;19;20343;-81
2022/01/04 18:18:49;;;;;;;1.40;1.30;;;6.10;99.90;;;;;;7425086;19;20317;-81
2022/01/04 18:21:39;;;;;;;1.90;1.80;;;6.00;99.90;;;;;;7320227;19;2004263;-80
2022/01/04 18:24:12;;;;;;;5.93;3.72;;;6.00;99.90;;;;;;7379868;19;20309;-81
2022/01/04 18:26:52;;;;;;;9.52;6.47;;;6.00;99.90;;;;;;7258436;19;2004220;-81
2022/01/04 18:29:47;;;;;;;11.43;8.30;;;6.00;99.90;;;;;;7323397;19;2004317;-82
2022/01/04 18:41:06;;;;;;;2.17;1.92;;;5.90;99.90;;;;;;7381836;19;20376;-82
2022/01/04 18:43:46;;;;;;;11.07;9.68;;;5.90;99.90;;;;;;7386488;19;20353;-83
2022/01/04 18:46:14;;;;;;;16.02;11.77;;;5.80;99.90;;;;;;7357653;19;20317;-83
2022/01/04 18:48:41;;;;;;;7.68;5.43;;;5.90;99.90;;;;;;7360666;19;20326;-84
2022/01/04 18:51:11;;;;;;;6.65;5.72;;;5.80;99.90;;;;;;7396934;19;20336;-82
2022/01/04 18:59:51;;;;;;;6.88;4.65;;;5.70;99.90;;;;;;7418617;19;20371;-82
2022/01/04 19:02:32;;;;;;;5.70;4.47;;;5.70;99.90;;;;;;7294981;19;2004021;-81
2022/01/04 19:05:10;;;;;;;4.68;3.85;;;5.70;99.90;;;;;;7424641;19;20313;-83
2022/01/04 19:07:42;;;;;;;2.17;2.00;;;5.70;99.90;;;;;;7237443;19;2003981;-80
2022/01/04 19:13:25;;;;;;;1.90;1.80;;;5.70;99.90;;;;;;7286206;19;20352;31
2022/01/04 19:15:53;;;;;;;1.40;1.30;;;5.70;99.90;;;;;;7371604;19;21276;-79
2022/01/04 19:18:21;;;;;;;1.80;1.65;;;5.70;99.90;;;;;;7403532;19;20329;-84
2022/01/04 19:20:47;;;;;;;1.55;1.45;;;5.60;99.90;;;;;;7402337;19;20349;-83
2022/01/04 19:23:17;;;;;;;2.03;1.73;;;5.70;99.90;;;;;;7373257;19;20329;-82
2022/01/04 19:25:47;;;;;;;1.80;1.67;;;5.60;99.90;;;;;;7401178;19;20398;-83
2022/01/04 19:28:21;;;;;;;2.08;1.85;;;5.60;99.90;;;;;;7420573;19;20365;-82
2022/01/04 19:30:54;;;;;;;1.65;1.55;;;5.60;99.90;;;;;;7418404;19;20396;-84
2022/01/04 19:36:15;;;;;;;2.83;2.63;;;5.60;99.90;;;;;;7418873;19;20355;-82
2022/01/04 19:39:01;;;;;;;1.50;1.40;;;5.60;99.90;;;;;;7273451;19;2004366;-83
2022/01/04 19:41:31;;;;;;;1.70;1.60;;;5.60;99.90;;;;;;7376286;19;20333;-82
2022/01/04 19:44:07;;;;;;;1.50;1.40;;;5.60;99.90;;;;;;7379624;19;20340;-83
2022/01/04 19:46:34;;;;;;;1.50;1.40;;;5.60;99.90;;;;;;7414829;19;20361;-83
2022/01/04 19:49:03;;;;;;;1.45;1.35;;;5.40;99.90;;;;;;7398582;19;20304;-83
2022/01/04 19:51:35;;;;;;;2.42;1.70;;;5.60;99.90;;;;;;7392334;19;20368;-80
2022/01/04 19:54:03;;;;;;;1.70;1.60;;;5.70;99.90;;;;;;7395994;19;20386;-81
2022/01/04 19:56:33;;;;;;;1.70;1.60;;;5.90;99.90;;;;;;7394916;19;20352;-81
2022/01/04 19:59:02;;;;;;;3.20;1.50;;;5.70;99.90;;;;;;7396574;19;20325;-82
2022/01/04 20:01:33;;;;;;;1.90;1.80;;;5.70;99.90;;;;;;7414714;19;20360;-80
2022/01/04 20:04:10;;;;;;;1.50;1.40;;;5.70;99.90;;;;;;7378978;19;20332;-80
2022/01/04 20:06:37;;;;;;;1.88;1.70;;;5.70;99.90;;;;;;7396350;19;20439;-81
2022/01/04 20:09:17;;;;;;;1.63;1.52;;;5.70;99.90;;;;;;7420897;19;20332;-81
2022/01/04 20:11:44;;;;;;;1.50;1.40;;;5.70;99.90;;;;;;7296420;19;2003999;-82
2022/01/04 20:14:15;;;;;;;1.50;1.40;;;5.70;99.90;;;;;;7415499;19;20365;-81
2022/01/04 20:16:44;;;;;;;2.22;1.50;;;5.60;99.90;;;;;;7418407;19;20365;-81
2022/01/04 20:19:13;;;;;;;1.55;1.45;;;5.70;99.90;;;;;;7417536;19;20380;-80
2022/01/04 20:21:41;;;;;;;1.50;1.40;;;5.70;99.90;;;;;;7381129;19;20348;-81
2022/01/04 20:24:11;;;;;;;1.75;1.65;;;5.70;99.90;;;;;;7412548;19;20366;-80
2022/01/04 20:26:41;;;;;;;1.60;1.50;;;5.70;99.90;;;;;;7392964;19;20345;-81
2022/01/04 20:29:10;;;;;;;2.30;1.60;;;5.70;99.90;;;;;;7410704;19;20377;-82
2022/01/04 20:31:39;;;;;;;1.70;1.60;;;5.70;99.90;;;;;;7398857;19;20360;-81
2022/01/04 20:34:08;;;;;;;1.98;1.80;;;5.90;99.90;;;;;;7376301;19;20344;-82
2022/01/04 20:36:41;;;;;;;2.13;1.92;;;5.70;99.90;;;;;;7393393;19;20435;-82
2022/01/04 20:39:12;;;;;;;1.90;1.60;;;5.80;99.90;;;;;;7412064;19;20352;-81
2022/01/04 20:41:54;;;;;;;1.88;1.77;;;5.80;99.90;;;;;;7364107;19;20338;-80
2022/01/04 20:44:25;;;;;;;1.70;1.60;;;5.80;99.90;;;;;;7396657;19;20380;-81
2022/01/04 20:46:54;;;;;;;1.73;1.63;;;5.90;99.90;;;;;;7399850;19;20328;-81
2022/01/04 20:49:28;;;;;;;1.80;1.70;;;5.80;99.90;;;;;;7397608;19;20384;-81
2022/01/04 20:52:11;;;;;;;4.25;3.67;;;5.80;99.90;;;;;;7397807;19;20386;-80
